createdAt,value
2022-10-17T00:00:12.313Z,26.22
2022-10-17T00:00:42.431Z,26.20
2022-10-17T00:01:12.659Z,26.17
2022-10-17T00:01:42.597Z,26.19
2022-10-17T00:02:12.568Z,26.19
2022-10-17T00:02:42.680Z,26.20
2022-10-17T00:03:12.798Z,26.19
2022-10-17T00:03:42.905Z,26.20
2022-10-17T00:04:13.024Z,26.20
2022-10-17T00:04:43.137Z,26.22
2022-10-17T00:05:13.245Z,26.20
2022-10-17T00:05:43.362Z,26.20
2022-10-17T00:06:13.499Z,26.19
2022-10-17T00:06:43.609Z,26.17
2022-10-17T00:07:13.700Z,26.19
2022-10-17T00:07:43.810Z,26.19
2022-10-17T00:08:13.923Z,26.19
2022-10-17T00:08:44.049Z,26.20
2022-10-17T00:09:14.146Z,26.20
2022-10-17T00:09:44.260Z,26.22
2022-10-17T00:10:14.378Z,26.20
2022-10-17T00:10:44.486Z,26.20
2022-10-17T00:11:14.615Z,26.19
2022-10-17T00:11:44.720Z,26.16
2022-10-17T00:12:14.833Z,26.19
2022-10-17T00:12:44.955Z,26.19
2022-10-17T00:13:15.061Z,26.17
2022-10-17T00:13:45.176Z,26.20
2022-10-17T00:14:15.293Z,26.19
2022-10-17T00:14:45.400Z,26.20
2022-10-17T00:15:15.514Z,26.20
2022-10-17T00:15:45.629Z,26.17
2022-10-17T00:16:15.745Z,26.19
2022-10-17T00:16:45.739Z,26.19
2022-10-17T00:17:15.850Z,26.20
2022-10-17T00:17:45.982Z,26.20
2022-10-17T00:18:16.081Z,26.17
2022-10-17T00:18:46.187Z,26.19
2022-10-17T00:19:16.302Z,26.20
2022-10-17T00:19:46.414Z,26.19
2022-10-17T00:20:16.555Z,26.19
2022-10-17T00:20:46.532Z,26.19
2022-10-17T00:21:16.666Z,26.20
2022-10-17T00:21:46.663Z,26.17
2022-10-17T00:22:16.763Z,26.20
2022-10-17T00:22:46.748Z,26.17
2022-10-17T00:23:16.869Z,26.20
2022-10-17T00:23:46.983Z,26.17
2022-10-17T00:24:17.089Z,26.19
2022-10-17T00:24:47.201Z,26.22
2022-10-17T00:25:17.313Z,26.19
2022-10-17T00:25:47.424Z,26.19
2022-10-17T00:26:17.551Z,26.20
2022-10-17T00:26:47.533Z,26.20
2022-10-17T00:27:17.650Z,26.16
2022-10-17T00:27:47.759Z,26.19
2022-10-17T00:28:17.872Z,26.19
2022-10-17T00:28:48.088Z,26.16
2022-10-17T00:29:18.034Z,26.19
2022-10-17T00:29:48.148Z,26.20
2022-10-17T00:30:18.261Z,26.17
2022-10-17T00:30:48.371Z,26.19
2022-10-17T00:31:18.490Z,26.17
2022-10-17T00:31:48.528Z,26.19
2022-10-17T00:32:18.521Z,26.20
2022-10-17T00:32:48.642Z,26.20
2022-10-17T00:33:18.752Z,26.17
2022-10-17T00:33:48.871Z,26.19
2022-10-17T00:34:18.989Z,26.17
2022-10-17T00:34:49.096Z,26.19
2022-10-17T00:35:19.212Z,26.20
2022-10-17T00:35:49.323Z,26.19
2022-10-17T00:36:19.439Z,26.19
2022-10-17T00:36:49.573Z,26.19
2022-10-17T00:37:19.666Z,26.17
2022-10-17T00:37:49.777Z,26.22
2022-10-17T00:38:19.896Z,26.19
2022-10-17T00:38:50.003Z,26.19
2022-10-17T00:39:20.126Z,26.17
2022-10-17T00:39:50.235Z,26.17
2022-10-17T00:40:20.353Z,26.19
2022-10-17T00:40:50.519Z,26.20
2022-10-17T00:41:20.503Z,26.19
2022-10-17T00:41:50.612Z,26.20
2022-10-17T00:42:20.740Z,26.17
2022-10-17T00:42:50.838Z,26.19
2022-10-17T00:43:20.954Z,26.17
2022-10-17T00:43:51.064Z,26.17
2022-10-17T00:44:21.175Z,26.19
2022-10-17T00:44:51.287Z,26.19
2022-10-17T00:45:21.401Z,26.17
2022-10-17T00:45:51.469Z,26.19
2022-10-17T00:46:21.561Z,26.17
2022-10-17T00:46:51.633Z,26.20
2022-10-17T00:47:21.700Z,26.20
2022-10-17T00:47:51.777Z,26.20
2022-10-17T00:48:23.315Z,26.16
2022-10-17T00:48:51.862Z,26.17
2022-10-17T00:49:21.938Z,26.19
2022-10-17T00:49:52.104Z,26.17
2022-10-17T00:50:22.006Z,26.19
2022-10-17T00:50:52.086Z,26.17
2022-10-17T00:51:22.160Z,26.17
2022-10-17T00:51:52.256Z,26.20
2022-10-17T00:52:22.303Z,26.17
2022-10-17T00:52:52.378Z,26.20
2022-10-17T00:53:22.457Z,26.17
2022-10-17T00:53:52.527Z,26.20
2022-10-17T00:54:22.610Z,26.19
2022-10-17T00:54:52.684Z,26.19
2022-10-17T00:55:22.766Z,26.16
2022-10-17T00:55:52.901Z,26.19
2022-10-17T00:56:22.876Z,26.19
2022-10-17T00:56:52.988Z,26.19
2022-10-17T00:57:23.106Z,26.19
2022-10-17T00:57:53.218Z,26.19
2022-10-17T00:58:23.331Z,26.19
2022-10-17T00:58:53.474Z,26.17
2022-10-17T00:59:23.451Z,26.20
2022-10-17T00:59:53.563Z,26.17
2022-10-17T01:00:23.674Z,26.17
2022-10-17T01:00:53.677Z,26.16
2022-10-17T01:01:23.692Z,26.19
2022-10-17T01:01:53.668Z,26.19
2022-10-17T01:02:23.776Z,26.20
2022-10-17T01:02:53.884Z,26.17
2022-10-17T01:03:24.004Z,26.20
2022-10-17T01:03:54.118Z,26.20
2022-10-17T01:04:24.226Z,26.17
2022-10-17T01:04:54.340Z,26.19
2022-10-17T01:05:24.450Z,26.19
2022-10-17T01:05:54.589Z,26.17
2022-10-17T01:06:24.582Z,26.17
2022-10-17T01:06:54.716Z,26.17
2022-10-17T01:07:24.806Z,26.16
2022-10-17T01:07:54.920Z,26.20
2022-10-17T01:08:25.029Z,26.20
2022-10-17T01:08:55.144Z,26.19
2022-10-17T01:09:25.254Z,26.17
2022-10-17T01:09:55.373Z,26.19
2022-10-17T01:10:25.519Z,26.20
2022-10-17T01:10:55.500Z,26.19
2022-10-17T01:11:25.623Z,26.17
2022-10-17T01:11:55.731Z,26.19
2022-10-17T01:12:26.252Z,26.22
2022-10-17T01:12:55.958Z,26.17
2022-10-17T01:13:26.070Z,26.19
2022-10-17T01:13:56.182Z,26.19
2022-10-17T01:14:26.295Z,26.20
2022-10-17T01:14:56.409Z,26.19
2022-10-17T01:15:26.544Z,26.19
2022-10-17T01:15:56.529Z,26.19
2022-10-17T01:16:26.649Z,26.22
2022-10-17T01:16:56.757Z,26.20
2022-10-17T01:17:26.872Z,26.19
2022-10-17T01:17:56.987Z,26.20
2022-10-17T01:18:27.109Z,26.20
2022-10-17T01:18:57.212Z,26.20
2022-10-17T01:19:27.331Z,26.20
2022-10-17T01:19:57.440Z,26.22
2022-10-17T01:20:27.564Z,26.20
2022-10-17T01:20:57.556Z,26.22
2022-10-17T01:21:27.673Z,26.20
2022-10-17T01:21:57.805Z,26.23
2022-10-17T01:22:28.131Z,26.20
2022-10-17T01:22:57.921Z,26.19
2022-10-17T01:23:28.033Z,26.19
2022-10-17T01:23:58.150Z,26.22
2022-10-17T01:24:28.262Z,26.22
2022-10-17T01:24:58.373Z,26.22
2022-10-17T01:25:28.489Z,26.22
2022-10-17T01:25:58.602Z,26.22
2022-10-17T01:26:28.721Z,26.22
2022-10-17T01:26:58.707Z,26.20
2022-10-17T01:27:28.821Z,26.20
2022-10-17T01:27:58.933Z,26.19
2022-10-17T01:28:29.135Z,26.20
2022-10-17T01:28:59.123Z,26.23
2022-10-17T01:29:29.239Z,26.19
2022-10-17T01:29:59.349Z,26.22
2022-10-17T01:30:29.460Z,26.22
2022-10-17T01:30:59.579Z,26.20
2022-10-17T01:31:29.790Z,26.20
2022-10-17T01:31:59.778Z,26.22
2022-10-17T01:32:30.221Z,26.22
2022-10-17T01:32:59.890Z,26.20
2022-10-17T01:33:30.001Z,26.22
2022-10-17T01:34:00.114Z,26.23
2022-10-17T01:34:30.222Z,26.20
2022-10-17T01:35:00.331Z,26.20
2022-10-17T01:35:30.449Z,26.23
2022-10-17T01:36:04.774Z,26.23
2022-10-17T01:36:30.582Z,26.17
2022-10-17T01:37:00.595Z,26.20
2022-10-17T01:37:30.680Z,26.20
2022-10-17T01:38:00.794Z,26.22
2022-10-17T01:38:30.905Z,26.22
2022-10-17T01:39:01.019Z,26.22
2022-10-17T01:39:32.508Z,26.23
2022-10-17T01:40:01.194Z,26.22
2022-10-17T01:40:31.306Z,26.20
2022-10-17T01:41:01.423Z,26.20
2022-10-17T01:41:31.539Z,26.22
2022-10-17T01:42:01.647Z,26.19
2022-10-17T01:42:31.763Z,26.20
2022-10-17T01:43:01.873Z,26.20
2022-10-17T01:43:31.982Z,26.19
2022-10-17T01:44:02.097Z,26.22
2022-10-17T01:44:32.209Z,26.20
2022-10-17T01:45:02.325Z,26.20
2022-10-17T01:45:32.422Z,26.20
2022-10-17T01:46:02.490Z,26.23
2022-10-17T01:46:32.563Z,26.20
2022-10-17T01:47:02.641Z,26.19
2022-10-17T01:47:32.711Z,26.20
2022-10-17T01:48:02.787Z,26.22
2022-10-17T01:48:32.858Z,26.19
2022-10-17T01:49:02.936Z,26.20
2022-10-17T01:49:33.015Z,26.19
2022-10-17T01:50:03.081Z,26.19
2022-10-17T01:50:33.156Z,26.17
2022-10-17T01:51:03.238Z,26.19
2022-10-17T01:51:33.308Z,26.20
2022-10-17T01:52:03.386Z,26.16
2022-10-17T01:52:33.481Z,26.17
2022-10-17T01:53:03.531Z,26.17
2022-10-17T01:53:33.606Z,26.19
2022-10-17T01:54:03.681Z,26.19
2022-10-17T01:54:33.760Z,26.22
2022-10-17T01:55:03.831Z,26.19
2022-10-17T01:55:33.953Z,26.20
2022-10-17T01:56:03.948Z,26.19
2022-10-17T01:56:34.053Z,26.17
2022-10-17T01:57:04.171Z,26.19
2022-10-17T01:57:34.280Z,26.19
2022-10-17T01:58:04.398Z,26.17
2022-10-17T01:58:34.506Z,26.17
2022-10-17T01:59:04.619Z,26.19
2022-10-17T01:59:34.734Z,26.17
2022-10-17T02:00:04.848Z,26.16
2022-10-17T02:00:34.965Z,26.19
2022-10-17T02:01:05.010Z,26.19
2022-10-17T02:01:35.083Z,26.16
2022-10-17T02:02:05.106Z,26.17
2022-10-17T02:02:35.222Z,26.16
2022-10-17T02:03:05.336Z,26.17
2022-10-17T02:03:35.449Z,26.19
2022-10-17T02:04:05.564Z,26.20
2022-10-17T02:04:35.679Z,26.17
2022-10-17T02:05:05.796Z,26.16
2022-10-17T02:05:35.920Z,26.16
2022-10-17T02:06:06.022Z,26.16
2022-10-17T02:06:36.134Z,26.17
2022-10-17T02:07:06.245Z,26.19
2022-10-17T02:07:36.381Z,26.16
2022-10-17T02:08:06.474Z,26.16
2022-10-17T02:08:36.590Z,26.16
2022-10-17T02:09:06.708Z,26.17
2022-10-17T02:09:36.822Z,26.19
2022-10-17T02:10:06.936Z,26.19
2022-10-17T02:10:37.065Z,26.17
2022-10-17T02:11:07.051Z,26.17
2022-10-17T02:11:37.164Z,26.17
2022-10-17T02:12:07.273Z,26.15
2022-10-17T02:12:37.388Z,26.16
2022-10-17T02:13:07.505Z,26.17
2022-10-17T02:13:37.616Z,26.16
2022-10-17T02:14:07.788Z,26.15
2022-10-17T02:14:37.800Z,26.13
2022-10-17T02:15:07.788Z,26.16
2022-10-17T02:15:37.918Z,26.16
2022-10-17T02:16:07.906Z,26.15
2022-10-17T02:16:38.019Z,26.17
2022-10-17T02:17:08.134Z,26.15
2022-10-17T02:17:38.246Z,26.17
2022-10-17T02:18:08.360Z,26.16
2022-10-17T02:18:38.473Z,26.16
2022-10-17T02:19:08.586Z,26.16
2022-10-17T02:19:38.702Z,26.16
2022-10-17T02:20:08.813Z,26.16
2022-10-17T02:20:38.931Z,26.15
2022-10-17T02:21:08.924Z,26.15
2022-10-17T02:21:39.032Z,26.15
2022-10-17T02:22:09.149Z,26.15
2022-10-17T02:22:39.286Z,26.17
2022-10-17T02:23:09.447Z,26.15
2022-10-17T02:23:39.452Z,26.19
2022-10-17T02:24:09.563Z,26.13
2022-10-17T02:24:39.675Z,26.15
2022-10-17T02:25:09.786Z,26.17
2022-10-17T02:25:39.909Z,26.16
2022-10-17T02:26:09.898Z,26.15
2022-10-17T02:26:40.011Z,26.16
2022-10-17T02:27:10.127Z,26.16
2022-10-17T02:27:40.244Z,26.16
2022-10-17T02:28:10.360Z,26.16
2022-10-17T02:28:40.568Z,26.17
2022-10-17T02:29:10.590Z,26.15
2022-10-17T02:29:40.701Z,26.16
2022-10-17T02:30:10.821Z,26.16
2022-10-17T02:30:40.965Z,26.15
2022-10-17T02:31:10.939Z,26.16
2022-10-17T02:31:41.052Z,26.15
2022-10-17T02:32:11.252Z,26.16
2022-10-17T02:32:41.272Z,26.16
2022-10-17T02:33:11.250Z,26.16
2022-10-17T02:33:41.251Z,26.15
2022-10-17T02:34:11.365Z,26.16
2022-10-17T02:34:41.477Z,26.16
2022-10-17T02:35:11.598Z,26.15
2022-10-17T02:35:41.722Z,26.16
2022-10-17T02:36:11.713Z,26.16
2022-10-17T02:36:41.829Z,26.15
2022-10-17T02:37:11.943Z,26.15
2022-10-17T02:37:42.077Z,26.13
2022-10-17T02:38:12.170Z,26.15
2022-10-17T02:38:42.282Z,26.16
2022-10-17T02:39:12.403Z,26.13
2022-10-17T02:39:42.513Z,26.13
2022-10-17T02:40:12.624Z,26.16
2022-10-17T02:40:42.745Z,26.16
2022-10-17T02:41:12.857Z,26.15
2022-10-17T02:41:42.968Z,26.15
2022-10-17T02:42:13.084Z,26.16
2022-10-17T02:42:43.199Z,26.15
2022-10-17T02:43:13.307Z,26.15
2022-10-17T02:43:43.433Z,26.16
2022-10-17T02:44:13.533Z,26.16
2022-10-17T02:44:43.644Z,26.15
2022-10-17T02:45:13.760Z,26.12
2022-10-17T02:45:43.877Z,26.16
2022-10-17T02:46:13.868Z,26.16
2022-10-17T02:46:43.981Z,26.15
2022-10-17T02:47:14.094Z,26.15
2022-10-17T02:47:44.217Z,26.16
2022-10-17T02:48:14.327Z,26.15
2022-10-17T02:48:44.440Z,26.19
2022-10-17T02:49:14.549Z,26.16
2022-10-17T02:49:44.663Z,26.13
2022-10-17T02:50:14.777Z,26.15
2022-10-17T02:50:44.893Z,26.15
2022-10-17T02:51:14.878Z,26.12
2022-10-17T02:51:44.989Z,26.15
2022-10-17T02:52:15.100Z,26.13
2022-10-17T02:52:45.234Z,26.15
2022-10-17T02:53:15.330Z,26.16
2022-10-17T02:53:45.437Z,26.15
2022-10-17T02:54:15.551Z,26.17
2022-10-17T02:54:45.667Z,26.13
2022-10-17T02:55:15.780Z,26.15
2022-10-17T02:55:45.813Z,26.15
2022-10-17T02:56:15.831Z,26.16
2022-10-17T02:56:45.855Z,26.13
2022-10-17T02:57:15.883Z,26.15
2022-10-17T02:57:45.902Z,26.15
2022-10-17T02:58:15.933Z,26.16
2022-10-17T02:58:45.953Z,26.15
2022-10-17T02:59:15.981Z,26.15
2022-10-17T02:59:46.036Z,26.15
2022-10-17T03:00:16.072Z,26.16
2022-10-17T03:00:46.098Z,26.13
2022-10-17T03:01:16.162Z,26.15
2022-10-17T03:01:46.153Z,26.13
2022-10-17T03:02:16.173Z,26.15
2022-10-17T03:02:46.202Z,26.15
2022-10-17T03:03:16.234Z,26.15
2022-10-17T03:03:46.260Z,26.13
2022-10-17T03:04:16.289Z,26.15
2022-10-17T03:04:46.321Z,26.15
2022-10-17T03:05:16.356Z,26.16
2022-10-17T03:05:46.375Z,26.15
2022-10-17T03:06:16.404Z,26.13
2022-10-17T03:06:46.428Z,26.13
2022-10-17T03:07:16.452Z,26.13
2022-10-17T03:07:46.478Z,26.15
2022-10-17T03:08:16.526Z,26.13
2022-10-17T03:08:46.530Z,26.16
2022-10-17T03:09:16.549Z,26.12
2022-10-17T03:09:46.609Z,26.15
2022-10-17T03:10:16.638Z,26.13
2022-10-17T03:10:46.661Z,26.15
2022-10-17T03:11:16.692Z,26.13
2022-10-17T03:11:46.718Z,26.15
2022-10-17T03:12:16.738Z,26.13
2022-10-17T03:12:46.762Z,26.12
2022-10-17T03:13:16.784Z,26.15
2022-10-17T03:13:46.821Z,26.13
2022-10-17T03:14:16.846Z,26.15
2022-10-17T03:14:46.871Z,26.13
2022-10-17T03:15:16.894Z,26.13
2022-10-17T03:15:46.924Z,26.15
2022-10-17T03:16:16.973Z,26.13
2022-10-17T03:16:46.994Z,26.13
2022-10-17T03:17:17.018Z,26.13
2022-10-17T03:17:47.049Z,26.15
2022-10-17T03:18:17.074Z,26.13
2022-10-17T03:18:50.011Z,26.16
2022-10-17T03:19:17.166Z,26.15
2022-10-17T03:19:47.190Z,26.15
2022-10-17T03:20:17.216Z,26.13
2022-10-17T03:20:47.266Z,26.13
2022-10-17T03:21:17.297Z,26.13
2022-10-17T03:21:47.320Z,26.15
2022-10-17T03:22:17.351Z,26.12
2022-10-17T03:22:47.378Z,26.15
2022-10-17T03:23:17.407Z,26.13
2022-10-17T03:23:47.454Z,26.13
2022-10-17T03:24:17.449Z,26.16
2022-10-17T03:24:47.495Z,26.15
2022-10-17T03:25:17.510Z,26.13
2022-10-17T03:25:47.532Z,26.13
2022-10-17T03:26:17.559Z,26.13
2022-10-17T03:26:47.585Z,26.15
2022-10-17T03:27:17.615Z,26.15
2022-10-17T03:27:47.641Z,26.13
2022-10-17T03:28:17.675Z,26.15
2022-10-17T03:28:50.709Z,26.15
2022-10-17T03:29:17.736Z,26.13
2022-10-17T03:29:47.778Z,26.12
2022-10-17T03:30:17.805Z,26.13
2022-10-17T03:30:47.834Z,26.13
2022-10-17T03:31:17.859Z,26.13
2022-10-17T03:31:47.886Z,26.13
2022-10-17T03:32:17.913Z,26.13
2022-10-17T03:32:47.941Z,26.15
2022-10-17T03:33:17.972Z,26.15
2022-10-17T03:33:47.991Z,26.15
2022-10-17T03:34:18.013Z,26.12
2022-10-17T03:34:48.040Z,26.15
2022-10-17T03:35:18.062Z,26.12
2022-10-17T03:36:18.197Z,26.13
2022-10-17T03:36:48.222Z,26.13
2022-10-17T03:37:18.254Z,26.15
2022-10-17T03:37:48.278Z,26.13
2022-10-17T03:38:18.305Z,26.13
2022-10-17T03:38:48.325Z,26.15
2022-10-17T03:39:18.368Z,26.15
2022-10-17T03:39:48.365Z,26.13
2022-10-17T03:40:18.394Z,26.15
2022-10-17T03:40:48.427Z,26.15
2022-10-17T03:41:18.447Z,26.12
2022-10-17T03:41:48.470Z,26.15
2022-10-17T03:42:18.494Z,26.15
2022-10-17T03:42:48.516Z,26.13
2022-10-17T03:43:18.540Z,26.15
2022-10-17T03:43:48.563Z,26.15
2022-10-17T03:44:18.588Z,26.13
2022-10-17T03:44:48.618Z,26.12
2022-10-17T03:45:18.639Z,26.16
2022-10-17T03:45:48.756Z,26.17
2022-10-17T03:46:18.839Z,26.13
2022-10-17T03:46:48.824Z,26.13
2022-10-17T03:47:18.934Z,26.13
2022-10-17T03:47:49.048Z,26.16
2022-10-17T03:48:19.168Z,26.16
2022-10-17T03:48:49.271Z,26.15
2022-10-17T03:49:19.411Z,26.15
2022-10-17T03:49:49.402Z,26.19
2022-10-17T03:50:19.393Z,26.16
2022-10-17T03:50:49.512Z,26.13
2022-10-17T03:51:19.626Z,26.10
2022-10-17T03:51:49.742Z,26.12
2022-10-17T03:52:19.849Z,26.13
2022-10-17T03:52:49.964Z,26.12
2022-10-17T03:53:20.085Z,26.12
2022-10-17T03:53:50.192Z,26.12
2022-10-17T03:54:20.320Z,26.13
2022-10-17T03:54:50.325Z,26.15
2022-10-17T03:55:20.422Z,26.13
2022-10-17T03:55:50.450Z,26.15
2022-10-17T03:56:20.475Z,26.15
2022-10-17T03:56:50.581Z,26.15
2022-10-17T03:57:20.621Z,26.16
2022-10-17T03:57:50.643Z,26.13
2022-10-17T03:58:20.667Z,26.13
2022-10-17T03:58:50.696Z,26.10
2022-10-17T03:59:20.752Z,26.13
2022-10-17T03:59:50.779Z,26.13
2022-10-17T04:00:20.807Z,26.12
2022-10-17T04:00:50.907Z,26.13
2022-10-17T04:01:20.951Z,26.15
2022-10-17T04:01:50.966Z,26.16
2022-10-17T04:02:20.993Z,26.16
2022-10-17T04:02:51.020Z,26.16
2022-10-17T04:03:21.056Z,26.17
2022-10-17T04:03:51.080Z,26.16
2022-10-17T04:04:21.114Z,26.10
2022-10-17T04:04:51.141Z,26.13
2022-10-17T04:05:21.164Z,26.12
2022-10-17T04:05:51.195Z,26.12
2022-10-17T04:06:21.218Z,26.15
2022-10-17T04:06:51.246Z,26.13
2022-10-17T04:07:21.289Z,26.13
2022-10-17T04:07:51.289Z,26.16
2022-10-17T04:08:21.319Z,26.15
2022-10-17T04:08:51.344Z,26.16
2022-10-17T04:09:21.372Z,26.15
2022-10-17T04:09:51.400Z,26.16
2022-10-17T04:10:21.450Z,26.17
2022-10-17T04:10:51.456Z,26.17
2022-10-17T04:11:21.476Z,26.15
2022-10-17T04:11:51.512Z,26.15
2022-10-17T04:12:21.535Z,26.19
2022-10-17T04:12:51.561Z,26.17
2022-10-17T04:13:21.589Z,26.19
2022-10-17T04:13:51.615Z,26.17
2022-10-17T04:14:21.645Z,26.19
2022-10-17T04:14:51.673Z,26.20
2022-10-17T04:15:21.701Z,26.20
2022-10-17T04:15:51.730Z,26.20
2022-10-17T04:16:21.749Z,26.19
2022-10-17T04:16:51.778Z,26.19
2022-10-17T04:17:21.799Z,26.20
2022-10-17T04:17:51.935Z,26.17
2022-10-17T04:18:21.831Z,26.15
2022-10-17T04:18:51.853Z,26.15
2022-10-17T04:19:21.876Z,26.13
2022-10-17T04:19:51.917Z,26.16
2022-10-17T04:20:21.936Z,26.16
2022-10-17T04:20:51.965Z,26.16
2022-10-17T04:21:21.986Z,26.17
2022-10-17T04:21:52.014Z,26.15
2022-10-17T04:22:22.050Z,26.16
2022-10-17T04:22:52.086Z,26.16
2022-10-17T04:23:22.103Z,26.19
2022-10-17T04:23:52.136Z,26.17
2022-10-17T04:24:22.155Z,26.19
2022-10-17T04:24:52.189Z,26.17
2022-10-17T04:25:22.215Z,26.17
2022-10-17T04:25:52.275Z,26.19
2022-10-17T04:26:22.266Z,26.19
2022-10-17T04:26:52.363Z,26.19
2022-10-17T04:27:22.409Z,26.17
2022-10-17T04:27:52.435Z,26.17
2022-10-17T04:28:22.559Z,26.17
2022-10-17T04:28:52.505Z,26.19
2022-10-17T04:29:22.578Z,26.19
2022-10-17T04:29:52.618Z,26.20
2022-10-17T04:30:22.655Z,26.19
2022-10-17T04:30:54.133Z,26.22
2022-10-17T04:31:22.684Z,26.20
2022-10-17T04:31:52.725Z,26.20
2022-10-17T04:32:22.755Z,26.22
2022-10-17T04:32:52.794Z,26.23
2022-10-17T04:33:22.829Z,26.15
2022-10-17T04:33:52.858Z,26.15
2022-10-17T04:34:22.893Z,26.15
2022-10-17T04:34:52.950Z,26.17
2022-10-17T04:35:22.979Z,26.16
2022-10-17T04:35:53.001Z,26.16
2022-10-17T04:36:23.033Z,26.19
2022-10-17T04:36:53.054Z,26.16
2022-10-17T04:37:23.085Z,26.17
2022-10-17T04:37:53.117Z,26.19
2022-10-17T04:38:27.644Z,26.17
2022-10-17T04:38:53.188Z,26.19
2022-10-17T04:39:23.206Z,26.20
2022-10-17T04:39:53.239Z,26.20
2022-10-17T04:40:23.263Z,26.22
2022-10-17T04:40:53.295Z,26.22
2022-10-17T04:41:23.352Z,26.22
2022-10-17T04:41:53.350Z,26.22
2022-10-17T04:42:23.376Z,26.19
2022-10-17T04:42:53.402Z,26.19
2022-10-17T04:43:23.428Z,26.17
2022-10-17T04:43:53.457Z,26.17
2022-10-17T04:44:23.486Z,26.17
2022-10-17T04:44:53.519Z,26.17
2022-10-17T04:45:23.529Z,26.16
2022-10-17T04:46:32.627Z,26.15
2022-10-17T04:47:02.696Z,26.16
2022-10-17T04:47:32.771Z,26.16
2022-10-17T04:48:02.845Z,26.19
2022-10-17T04:48:32.912Z,26.17
2022-10-17T04:49:02.987Z,26.16
2022-10-17T04:49:33.130Z,26.17
2022-10-17T04:50:03.090Z,26.20
2022-10-17T04:50:33.163Z,26.19
2022-10-17T04:51:03.241Z,26.20
2022-10-17T04:51:33.318Z,26.19
2022-10-17T04:52:03.393Z,26.22
2022-10-17T04:52:33.465Z,26.22
2022-10-17T04:53:03.541Z,26.23
2022-10-17T04:53:33.611Z,26.23
2022-10-17T04:54:03.696Z,26.23
2022-10-17T04:54:33.777Z,26.24
2022-10-17T04:55:03.897Z,26.24
2022-10-17T04:55:33.887Z,26.24
2022-10-17T04:56:03.962Z,26.23
2022-10-17T04:56:34.035Z,26.26
2022-10-17T04:57:04.007Z,26.27
2022-10-17T04:57:34.115Z,26.27
2022-10-17T04:58:04.231Z,26.24
2022-10-17T04:58:34.348Z,26.27
2022-10-17T04:59:04.455Z,26.30
2022-10-17T04:59:34.571Z,26.29
2022-10-17T05:00:04.915Z,26.29
2022-10-17T05:00:34.831Z,26.29
2022-10-17T05:01:04.875Z,26.29
2022-10-17T05:01:34.833Z,26.27
2022-10-17T05:02:04.947Z,26.30
2022-10-17T05:02:35.057Z,26.32
2022-10-17T05:03:05.170Z,26.29
2022-10-17T05:03:35.282Z,26.29
2022-10-17T05:04:05.393Z,26.30
2022-10-17T05:04:35.516Z,26.27
2022-10-17T05:05:05.517Z,26.32
2022-10-17T05:05:35.629Z,26.29
2022-10-17T05:06:05.747Z,26.30
2022-10-17T05:06:35.856Z,26.27
2022-10-17T05:07:05.971Z,26.29
2022-10-17T05:07:36.082Z,26.27
2022-10-17T05:08:06.204Z,26.29
2022-10-17T05:08:36.188Z,26.30
2022-10-17T05:09:06.326Z,26.32
2022-10-17T05:09:36.324Z,26.29
2022-10-17T05:10:06.703Z,26.32
2022-10-17T05:10:36.558Z,26.30
2022-10-17T05:11:06.668Z,26.30
2022-10-17T05:11:36.805Z,26.27
2022-10-17T05:12:09.578Z,26.30
2022-10-17T05:12:36.926Z,26.30
2022-10-17T05:13:07.036Z,26.30
2022-10-17T05:13:37.145Z,26.30
2022-10-17T05:14:07.258Z,26.29
2022-10-17T05:14:37.369Z,26.32
2022-10-17T05:15:07.390Z,26.30
2022-10-17T05:15:37.506Z,26.29
2022-10-17T05:16:07.614Z,26.30
2022-10-17T05:16:37.723Z,26.30
2022-10-17T05:17:07.872Z,26.30
2022-10-17T05:17:37.860Z,26.29
2022-10-17T05:18:07.968Z,26.30
2022-10-17T05:18:38.079Z,26.30
2022-10-17T05:19:08.191Z,26.30
2022-10-17T05:19:38.300Z,26.30
2022-10-17T05:20:08.416Z,26.32
2022-10-17T05:20:38.406Z,26.32
2022-10-17T05:21:08.517Z,26.30
2022-10-17T05:21:38.631Z,26.30
2022-10-17T05:22:08.743Z,26.32
2022-10-17T05:22:41.242Z,26.29
2022-10-17T05:23:08.971Z,26.32
2022-10-17T05:23:39.084Z,26.29
2022-10-17T05:24:09.191Z,26.29
2022-10-17T05:24:39.309Z,26.29
2022-10-17T05:25:09.617Z,26.27
2022-10-17T05:25:39.473Z,26.29
2022-10-17T05:26:09.480Z,26.30
2022-10-17T05:26:39.589Z,26.29
2022-10-17T05:27:09.724Z,26.24
2022-10-17T05:27:39.819Z,26.30
2022-10-17T05:28:09.922Z,26.29
2022-10-17T05:28:40.092Z,26.29
2022-10-17T05:29:10.146Z,26.30
2022-10-17T05:29:40.146Z,26.30
2022-10-17T05:30:10.266Z,26.30
2022-10-17T05:30:40.377Z,26.29
2022-10-17T05:31:10.487Z,26.32
2022-10-17T05:31:40.596Z,26.29
2022-10-17T05:32:10.703Z,26.32
2022-10-17T05:32:40.825Z,26.29
2022-10-17T05:33:10.813Z,26.33
2022-10-17T05:33:40.930Z,26.32
2022-10-17T05:34:13.178Z,26.29
2022-10-17T05:34:41.049Z,26.29
2022-10-17T05:35:11.166Z,26.29
2022-10-17T05:35:41.278Z,26.30
2022-10-17T05:36:11.385Z,26.30
2022-10-17T05:36:41.498Z,26.27
2022-10-17T05:37:11.611Z,26.29
2022-10-17T05:37:41.721Z,26.26
2022-10-17T05:38:11.835Z,26.27
2022-10-17T05:38:41.941Z,26.29
2022-10-17T05:39:12.059Z,26.30
2022-10-17T05:39:42.169Z,26.30
2022-10-17T05:40:12.285Z,26.29
2022-10-17T05:40:42.401Z,26.27
2022-10-17T05:41:12.508Z,26.29
2022-10-17T05:41:42.621Z,26.32
2022-10-17T05:42:12.671Z,26.27
2022-10-17T05:42:42.626Z,26.29
2022-10-17T05:43:12.741Z,26.32
2022-10-17T05:43:42.854Z,26.33
2022-10-17T05:44:12.962Z,26.32
2022-10-17T05:44:43.071Z,26.29
2022-10-17T05:45:13.291Z,26.32
2022-10-17T05:45:43.276Z,26.32
2022-10-17T05:46:13.374Z,26.32
2022-10-17T05:46:43.447Z,26.32
2022-10-17T05:47:13.524Z,26.32
2022-10-17T05:47:43.596Z,26.32
2022-10-17T05:48:13.679Z,26.33
2022-10-17T05:48:43.744Z,26.33
2022-10-17T05:49:19.614Z,26.32
2022-10-17T05:49:48.521Z,26.36
2022-10-17T05:50:14.031Z,26.30
2022-10-17T05:50:44.104Z,26.32
2022-10-17T05:51:14.178Z,26.32
2022-10-17T05:51:44.251Z,26.33
2022-10-17T05:52:14.332Z,26.33
2022-10-17T05:52:46.429Z,26.32
2022-10-17T05:53:14.501Z,26.33
2022-10-17T05:53:44.579Z,26.32
2022-10-17T05:54:14.654Z,26.33
2022-10-17T05:54:44.726Z,26.33
2022-10-17T05:55:14.806Z,26.33
2022-10-17T05:55:44.791Z,26.32
2022-10-17T05:56:14.887Z,26.34
2022-10-17T05:56:44.997Z,26.33
2022-10-17T05:57:15.136Z,26.33
2022-10-17T05:57:45.222Z,26.33
2022-10-17T05:58:22.069Z,26.33
2022-10-17T05:58:55.149Z,26.33
2022-10-17T05:59:15.354Z,26.30
2022-10-17T05:59:45.466Z,26.32
2022-10-17T06:00:15.583Z,26.30
2022-10-17T06:01:15.773Z,26.33
2022-10-17T06:01:45.942Z,26.30
2022-10-17T06:02:15.996Z,26.32
2022-10-17T06:02:45.916Z,26.30
2022-10-17T06:03:16.026Z,26.32
2022-10-17T06:03:46.137Z,26.33
2022-10-17T06:04:16.253Z,26.32
2022-10-17T06:04:46.366Z,26.30
2022-10-17T06:05:16.480Z,26.30
2022-10-17T06:05:46.593Z,26.30
2022-10-17T06:06:16.741Z,26.27
2022-10-17T06:06:46.770Z,26.27
2022-10-17T06:07:16.875Z,26.27
2022-10-17T06:07:46.985Z,26.27
2022-10-17T06:08:17.097Z,26.29
2022-10-17T06:08:47.216Z,26.26
2022-10-17T06:09:17.342Z,26.24
2022-10-17T06:09:47.455Z,26.27
2022-10-17T06:10:17.451Z,26.27
2022-10-17T06:10:47.455Z,26.23
2022-10-17T06:11:17.551Z,26.23
2022-10-17T06:11:47.669Z,26.22
2022-10-17T06:12:17.810Z,26.23
2022-10-17T06:12:47.902Z,26.26
2022-10-17T06:13:18.013Z,26.24
2022-10-17T06:13:48.131Z,26.26
2022-10-17T06:14:18.239Z,26.26
2022-10-17T06:14:48.409Z,26.29
2022-10-17T06:15:18.413Z,26.29
2022-10-17T06:15:48.427Z,26.32
2022-10-17T06:16:18.405Z,26.22
2022-10-17T06:16:48.512Z,26.20
2022-10-17T06:17:18.625Z,26.23
2022-10-17T06:17:48.741Z,26.26
2022-10-17T06:18:18.855Z,26.26
2022-10-17T06:19:19.072Z,26.24
2022-10-17T06:19:49.212Z,26.23
2022-10-17T06:20:19.204Z,26.23
2022-10-17T06:20:49.314Z,26.24
2022-10-17T06:21:19.469Z,26.23
2022-10-17T06:21:49.444Z,26.23
2022-10-17T06:22:19.567Z,26.23
2022-10-17T06:22:49.567Z,26.26
2022-10-17T06:23:19.666Z,26.27
2022-10-17T06:23:49.786Z,26.27
2022-10-17T06:24:19.899Z,26.27
2022-10-17T06:24:50.044Z,26.27
2022-10-17T06:25:20.022Z,26.27
2022-10-17T06:25:50.136Z,26.30
2022-10-17T06:26:20.247Z,26.29
2022-10-17T06:26:50.388Z,26.29
2022-10-17T06:27:20.400Z,26.30
2022-10-17T06:27:50.579Z,26.30
2022-10-17T06:28:20.554Z,26.29
2022-10-17T06:28:50.753Z,26.32
2022-10-17T06:29:20.707Z,26.32